Latest Weather Observations for Sheffield

IDT60801

Issued at 8:01 pm EDT Saturday 13 February 2016 (issued every 30 minutes, with the page automatically refreshed every 10 minutes)

About weather observations | Map of weather stations | Latest weather observations for TAS | Other Formats
Station Details ID: 091291 Name: SHEFFIELD SCHOOL FARM Lat: -41.39 Lon: 146.32 Height: 294.2 m
Data from the previous 72 hours. | See also: Recent months at Sheffield
Date/Time
EDT
Temp
°C
App
Temp
°C
Dew
Point
Rel
Hum
%
Delta-T
°C
Wind Press
QNH
hPa
Press
MSL
hPa
Rain
since 9 am
mm
Dir
 
Spd
km/h
Gust
km/h
Spd
kts
Gust
kts
13/08:00pm 19.3 14.9 11.6 61 4.3 WNW 26 33 14 18 1004.0 1003.4 0.0
13/07:30pm 19.9 14.9 11.1 57 4.9 WNW 28 43 15 23 1003.6 1003.0 0.0
13/07:00pm 20.5 16.9 10.6 53 5.5 W 20 32 11 17 1003.3 1002.7 0.0
13/06:46pm 21.6 16.4 10.4 49 6.2 WNW 28 46 15 25 1003.2 1002.5 0.0
13/06:30pm 21.9 16.7 10.4 48 6.4 W 28 39 15 21 1003.1 1002.4 0.0
13/06:00pm 22.7 16.9 10.8 47 6.7 WNW 32 43 17 23 1002.8 1002.1 0.0
13/05:30pm 23.0 16.7 9.8 43 7.3 WNW 33 46 18 25 1002.6 1001.9 0.0
13/05:00pm 23.8 19.4 10.5 43 7.5 WNW 24 39 13 21 1002.5 1001.8 0.0
13/04:30pm 22.5 19.0 14.4 60 4.8 NNW 26 33 14 18 1002.5 1001.8 0.0
13/04:00pm 22.4 20.0 15.3 64 4.3 N 22 33 12 18 1002.7 1002.0 0.0
13/03:30pm 22.2 19.0 15.3 65 4.2 NNW 26 33 14 18 1002.9 1002.2 0.0
13/03:00pm 21.6 18.0 14.3 63 4.3 N 26 39 14 21 1003.3 1002.7 0.0
13/02:30pm 22.4 19.3 14.5 61 4.7 NNW 24 35 13 19 1003.7 1003.1 0.0
13/02:00pm 22.2 19.6 14.8 63 4.4 NNW 22 32 12 17 1004.1 1003.5 0.0
13/01:30pm 22.6 20.5 14.7 61 4.7 NNW 19 28 10 15 1004.2 1003.6 0.0
13/01:00pm 22.6 21.5 14.4 60 4.9 NNW 13 20 7 11 1004.6 1004.0 0.0
13/12:30pm 22.4 21.0 14.5 61 4.7 NW 15 24 8 13 1005.2 1004.5 0.0
13/12:00pm 21.4 19.0 12.8 58 5.0 WNW 17 24 9 13 1005.7 1005.0 0.0
13/11:30am 20.9 18.4 13.4 62 4.4 NW 19 30 10 16 1006.0 1005.3 0.0
13/11:00am 20.5 19.1 14.6 69 3.5 NW 15 22 8 12 1006.3 1005.7 0.0
13/10:30am 19.1 18.3 15.0 77 2.4 NW 13 20 7 11 1006.8 1006.2 0.0
13/10:00am 18.3 18.2 15.0 81 2.0 NW 9 15 5 8 1007.1 1006.5 0.0
13/09:30am 16.9 17.0 14.5 86 1.4 NW 7 11 4 6 1007.3 1006.7 0.0
13/09:00am 15.6 16.1 14.0 90 0.9 NW 4 7 2 4 1007.3 1006.7 0.0
13/08:30am 14.9 15.4 13.9 94 0.6 WNW 4 6 2 3 1007.7 1007.1 0.0
13/08:00am 14.3 15.0 13.3 94 0.6 NW 2 4 1 2 1007.7 1007.1 0.0
13/07:30am 14.0 13.8 13.1 94 0.5 NNW 6 7 3 4 1007.6 1007.0 0.0
13/07:00am 14.2 14.8 13.2 94 0.6 WNW 2 4 1 2 1007.4 1006.8 0.0
13/06:30am 13.8 14.6 12.7 93 0.6 CALM 0 4 0 2 1007.4 1006.8 0.0
13/06:00am 13.7 13.7 12.4 92 0.7 WNW 4 6 2 3 1008.1 1007.5 0.0
13/05:30am 13.9 14.0 12.8 93 0.6 NW 4 6 2 3 1007.7 1007.1 0.0
13/05:00am 13.5 13.1 12.4 93 0.6 WSW 6 7 3 4 1008.4 1007.7 0.0
13/04:30am 13.4 14.1 12.3 93 0.6 CALM 0 0 0 0 1008.6 1007.9 0.0
13/04:00am 13.7 13.7 12.4 92 0.7 W 4 6 2 3 1008.8 1008.1 0.0
13/03:30am 13.4 14.0 12.0 91 0.8 CALM 0 0 0 0 1009.2 1008.6 0.0
13/03:00am 13.2 13.0 11.9 92 0.7 WSW 4 6 2 3 1009.4 1008.8 0.0
13/02:30am 13.1 12.8 11.5 90 0.9 W 4 6 2 3 1009.9 1009.3 0.0
13/02:00am 13.0 12.2 11.1 88 1.0 W 6 7 3 4 1010.5 1009.9 0.0
13/01:30am 13.4 13.2 11.8 90 0.9 WSW 4 6 2 3 1010.6 1010.0 0.0
13/01:00am 13.4 13.8 11.3 87 1.1 CALM 0 0 0 0 1011.0 1010.4 0.0
13/12:30am 13.8 14.4 11.8 88 1.1 CALM 0 0 0 0 1011.2 1010.6 0.0
13/12:00am 14.0 14.1 11.5 85 1.4 WNW 2 2 1 1 1011.4 1010.8 0.0
 
Date/Time
EDT
Temp
°C
App
Temp
°C
Dew
Point
Rel
Hum
%
Delta-T
°C
Wind Press
QNH
hPa
Press
MSL
hPa
Rain
since 9 am
mm
Dir
 
Spd
km/h
Gust
km/h
Spd
kts
Gust
kts
12/11:30pm 14.1 14.5 11.4 84 1.5 CALM 0 2 0 1 1011.5 1010.9 0.0
12/11:00pm 14.4 13.8 11.7 84 1.5 W 6 7 3 4 1012.3 1011.7 0.0
12/10:30pm 14.9 14.6 11.5 80 1.9 NNW 4 6 2 3 1012.3 1011.7 0.0
12/10:00pm 15.4 14.8 11.6 78 2.1 NNW 6 6 3 3 1012.7 1012.1 0.0
12/09:30pm 15.9 15.1 11.7 76 2.3 N 7 9 4 5 1012.8 1012.2 0.0
12/09:00pm 16.1 14.9 11.5 74 2.5 NNW 9 11 5 6 1013.0 1012.4 0.0
12/08:30pm 17.1 16.3 11.6 70 3.0 N 7 11 4 6 1013.0 1012.4 0.0
12/08:00pm 17.7 16.5 11.7 68 3.3 NNW 9 13 5 7 1013.3 1012.7 0.0
12/07:30pm 18.4 16.4 11.5 64 3.8 NNW 13 17 7 9 1013.2 1012.6 0.0
12/07:00pm 19.4 17.1 11.7 61 4.3 NNW 15 20 8 11 1013.4 1012.8 0.0
12/06:30pm 19.7 17.3 11.5 59 4.6 NNW 15 20 8 11 1013.5 1012.9 0.0
12/06:00pm 20.7 17.5 11.3 55 5.3 NNW 19 22 10 12 1013.7 1013.1 0.0
12/05:30pm 20.6 17.8 11.5 56 5.1 NW 17 26 9 14 1013.9 1013.3 0.0
12/05:00pm 21.1 18.1 12.5 58 4.9 NNW 20 28 11 15 1014.1 1013.5 0.0
12/04:30pm 20.9 18.5 12.6 59 4.8 N 17 24 9 13 1014.1 1013.5 0.0
12/04:00pm 22.1 19.2 12.4 54 5.6 N 19 24 10 13 1014.2 1013.6 0.0
12/03:30pm 21.7 19.3 12.5 56 5.3 NNW 17 26 9 14 1014.5 1013.9 0.0
12/03:00pm 21.6 19.2 12.5 56 5.2 NNW 17 26 9 14 1014.9 1014.3 0.0
12/02:30pm 21.6 19.4 13.2 59 4.9 N 17 24 9 13 1015.3 1014.8 0.0
12/02:00pm 21.6 18.9 13.5 60 4.7 NNW 20 28 11 15 1015.6 1015.0 0.0
12/01:30pm 22.3 20.2 13.6 58 5.1 NNW 17 30 9 16 1015.7 1015.1 0.0
12/01:00pm 21.3 19.0 13.0 59 4.8 N 17 28 9 15 1015.9 1015.3 0.0
12/12:30pm 21.5 18.8 11.8 54 5.5 NNW 17 22 9 12 1016.5 1015.9 0.0
12/12:00pm 21.0 19.0 13.9 64 4.2 NNW 17 24 9 13 1016.7 1016.1 0.0
12/11:30am 19.9 18.7 14.0 69 3.4 N 13 19 7 10 1016.9 1016.3 0.0
12/11:00am 18.3 18.4 12.7 70 3.2 NE 4 9 2 5 1017.2 1016.6 0.0
12/10:30am 19.0 19.4 13.8 72 3.0 ESE 4 7 2 4 1017.7 1017.1 0.0
12/10:00am 17.8 17.3 13.7 77 2.4 ESE 9 13 5 7 1017.7 1017.1 0.0
12/09:30am 17.8 16.9 13.7 77 2.4 ESE 11 15 6 8 1017.8 1017.2 0.0
12/09:00am 17.1 16.6 13.8 81 1.9 SE 9 13 5 7 1017.9 1017.3 0.0
12/08:30am 15.9 15.2 13.2 84 1.5 SE 9 13 5 7 1017.8 1017.2 0.0
12/08:00am 14.9 14.6 12.6 86 1.3 ESE 6 7 3 4 1017.4 1016.8 0.0
12/07:30am 14.3 13.7 12.3 88 1.1 ESE 7 9 4 5 1017.3 1016.7 0.0
12/07:00am 13.5 13.0 11.9 90 0.9 ESE 6 7 3 4 1017.0 1016.4 0.0
12/06:30am 13.4 12.8 11.6 89 1.0 ESE 6 6 3 3 1016.9 1016.3 0.0
12/06:00am 13.8 13.6 11.8 88 1.1 SE 4 6 2 3 1016.8 1016.2 0.0
12/05:30am 13.6 13.9 12.2 91 0.8 SE 2 4 1 2 1016.8 1016.2 0.0
12/05:00am 13.0 12.3 11.4 90 0.9 ESE 6 7 3 4 1016.9 1016.3 0.0
12/04:30am 13.4 13.1 11.6 89 1.0 ESE 4 6 2 3 1017.0 1016.4 0.0
12/04:00am 13.7 13.4 11.6 87 1.1 ESE 4 6 2 3 1017.0 1016.4 0.0
12/03:30am 13.6 13.3 11.5 87 1.1 ESE 4 6 2 3 1017.4 1016.8 0.0
12/03:00am 13.6 12.8 11.1 85 1.3 SE 6 7 3 4 1017.4 1016.8 0.0
12/02:30am 14.3 13.6 11.5 83 1.5 SE 6 6 3 3 1017.6 1017.0 0.0
12/02:00am 14.6 14.4 11.7 83 1.6 SE 4 4 2 2 1017.8 1017.2 0.0
12/01:30am 14.7 14.5 11.8 83 1.6 ESE 4 6 2 3 1017.9 1017.3 0.0
12/01:00am 14.6 14.0 11.6 82 1.6 SE 6 7 3 4 1017.9 1017.3 0.0
12/12:30am 14.6 14.4 11.7 83 1.6 ESE 4 7 2 4 1018.1 1017.6 0.0
12/12:00am 14.2 14.0 11.9 86 1.3 ESE 4 7 2 4 1018.2 1017.7 0.0
 
Date/Time
EDT
Temp
°C
App
Temp
°C
Dew
Point
Rel
Hum
%
Delta-T
°C
Wind Press
QNH
hPa
Press
MSL
hPa
Rain
since 9 am
mm
Dir
 
Spd
km/h
Gust
km/h
Spd
kts
Gust
kts
11/11:30pm 13.7 12.9 11.6 87 1.1 SE 7 9 4 5 1018.2 1017.7 0.0
11/11:00pm 14.0 13.1 11.5 85 1.4 SE 7 11 4 6 1018.2 1017.7 0.0
11/10:30pm 14.4 13.8 12.3 87 1.2 ESE 7 15 4 8 1018.0 1017.5 0.0
11/10:00pm 14.1 13.4 11.4 84 1.5 SE 6 7 3 4 1017.7 1017.1 0.0
11/09:30pm 15.1 15.3 11.9 81 1.8 SE 2 4 1 2 1017.4 1016.8 0.0
11/09:00pm 15.7 15.2 12.1 79 2.0 NE 6 9 3 5 1017.1 1016.5 0.0
11/08:30pm 16.1 15.4 11.3 73 2.6 NNE 6 9 3 5 1016.9 1016.3 0.0
11/08:00pm 16.7 15.3 9.6 63 3.8 NE 7 13 4 7 1016.4 1015.8 0.0
11/07:30pm 17.8 15.4 9.9 60 4.2 N 13 15 7 8 1016.1 1015.5 0.0
11/07:00pm 18.8 17.3 10.4 58 4.6 N 9 13 5 7 1015.8 1015.2 0.0
11/06:30pm 19.6 17.6 10.3 55 5.1 N 11 17 6 9 1015.3 1014.8 0.0
11/06:00pm 20.4 18.3 9.9 51 5.7 NNE 11 15 6 8 1015.2 1014.7 0.0
11/05:30pm 20.7 19.1 11.6 56 5.1 NNE 11 19 6 10 1015.1 1014.6 0.0
11/05:00pm 20.8 17.8 9.4 48 6.2 N 15 20 8 11 1015.1 1014.6 0.0
11/04:30pm 21.2 18.1 10.4 50 6.0 N 17 22 9 12 1015.0 1014.5 0.0
11/04:00pm 21.4 18.5 10.9 51 5.8 NNE 17 26 9 14 1015.1 1014.6 0.0
11/03:30pm 21.9 18.8 10.4 48 6.4 NNE 17 22 9 12 1015.2 1014.7 0.0
11/03:00pm 21.7 18.8 11.1 51 5.9 NNE 17 26 9 14 1015.3 1014.8 0.0
11/02:30pm 21.7 20.3 12.3 55 5.4 NNE 11 20 6 11 1015.4 1014.9 0.0
11/02:00pm 21.7 20.6 9.9 47 6.5 SW 6 9 3 5 1015.6 1015.0 0.0
11/01:30pm 22.3 20.6 8.4 41 7.4 NNW 7 22 4 12 1015.4 1014.9 0.0
11/01:00pm 21.7 19.6 9.9 47 6.5 SSE 11 26 6 14 1015.4 1014.9 0.0
11/12:30pm 21.3 20.4 9.2 46 6.5 WSW 4 7 2 4 1015.7 1015.1 0.0
11/12:00pm 20.8 19.6 9.7 49 6.0 ESE 6 9 3 5 1016.0 1015.4 0.0
11/11:30am 20.7 20.0 10.2 51 5.8 SE 4 13 2 7 1016.3 1015.7 0.0
11/11:00am 19.6 18.6 8.9 50 5.7 SSW 4 7 2 4 1016.4 1015.8 0.0
11/10:30am 19.1 17.7 8.7 51 5.5 SE 6 11 3 6 1016.5 1015.9 0.0
11/10:00am 18.4 16.7 9.7 57 4.7 ESE 9 13 5 7 1016.3 1015.7 0.0
11/09:30am 18.0 16.2 9.4 57 4.6 SE 9 13 5 7 1016.4 1015.8 0.0
11/09:00am 17.4 16.0 8.8 57 4.5 ESE 6 9 3 5 1016.2 1015.6 0.0
11/08:30am 16.9 16.6 8.8 59 4.2 CALM 0 0 0 0 1016.1 1015.5 0.0
11/08:00am 14.5 14.2 8.7 68 3.0 CALM 0 0 0 0 1015.7 1015.1 0.0
11/07:30am 13.8 13.7 9.3 74 2.3 CALM 0 0 0 0 1015.3 1014.8 0.0
11/07:00am 12.7 12.1 7.6 71 2.5 CALM 0 0 0 0 1015.1 1014.6 0.0
11/06:30am 12.7 12.1 7.2 69 2.7 CALM 0 4 0 2 1014.7 1014.1 0.0
11/06:00am 13.7 13.1 7.2 65 3.2 CALM 0 0 0 0 1014.3 1013.7 0.0
11/05:30am 14.2 13.2 7.3 63 3.4 WNW 2 4 1 2 1014.1 1013.5 0.0
11/05:00am 14.4 13.3 8.4 67 3.1 NE 4 6 2 3 1013.6 1013.0 0.0
11/04:30am 14.5 13.7 8.0 65 3.3 SSW 2 4 1 2 1013.6 1013.0 0.0
11/04:00am 13.7 12.1 8.1 69 2.8 WSW 6 9 3 5 1013.5 1012.9 0.0
11/03:30am 14.2 11.5 8.8 70 2.8 WSW 13 20 7 11 1013.5 1012.9 0.0
11/03:00am 14.6 13.1 8.3 66 3.2 SW 6 9 3 5 1013.6 1013.0 0.0
11/02:30am 15.8 12.5 8.1 60 3.9 WSW 15 24 8 13 1013.6 1013.0 0.0
11/02:00am 15.7 12.1 8.2 61 3.8 WSW 17 26 9 14 1013.5 1012.9 0.0
11/01:30am 14.6 11.8 8.5 67 3.1 WNW 13 19 7 10 1013.6 1013.0 0.0
11/01:00am 16.6 13.2 7.5 55 4.6 WSW 15 22 8 12 1013.6 1013.0 0.0
11/12:30am 16.5 14.1 7.2 54 4.7 SW 9 13 5 7 1013.4 1012.8 0.0
11/12:00am 17.3 14.9 7.1 51 5.2 SW 9 15 5 8 1013.2 1012.6 0.0
 
Date/Time
EDT
Temp
°C
App
Temp
°C
Dew
Point
Rel
Hum
%
Delta-T
°C
Wind Press
QNH
hPa
Press
MSL
hPa
Rain
since 9 am
mm
Dir
 
Spd
km/h
Gust
km/h
Spd
kts
Gust
kts
10/11:30pm 17.6 15.3 7.6 52 5.1 SW 9 20 5 11 1013.1 1012.5 0.0
10/11:00pm 17.0 14.9 8.4 57 4.5 SW 9 13 5 7 1013.0 1012.4 0.0
10/10:30pm 17.3 13.3 8.2 55 4.7 SW 19 33 10 18 1012.9 1012.3 0.0
10/10:00pm 17.9 13.5 7.3 50 5.4 SW 20 26 11 14 1012.6 1012.0 0.0
10/09:30pm 18.0 13.7 7.7 51 5.3 SW 20 30 11 16 1012.2 1011.6 0.0
10/09:00pm 18.0 13.7 7.7 51 5.3 SW 20 28 11 15 1011.7 1011.1 0.0
10/08:30pm 17.9 12.2 8.2 53 5.0 SW 28 44 15 24 1011.5 1010.9 0.0

Other Formats:

Comma delimited format used in spreadsheet applications
http://www.bom.gov.au/fwo/IDT60801/IDT60801.94955.axf

JavaScript Object Notation format (JSON) in row-major order
http://www.bom.gov.au/fwo/IDT60801/IDT60801.94955.json